sensor_id;sensor_type;location;lat;lon;timestamp;temperature;humidity
18229;DHT22;9239;50.932;3.142;2023-12-14T00:02:26;9.10;99.90
18229;DHT22;9239;50.932;3.142;2023-12-14T00:04:52;9.10;99.90
18229;DHT22;9239;50.932;3.142;2023-12-14T00:07:21;9.10;99.90
18229;DHT22;9239;50.932;3.142;2023-12-14T00:09:48;9.20;99.90
18229;DHT22;9239;50.932;3.142;2023-12-14T00:12:15;9.20;99.90
18229;DHT22;9239;50.932;3.142;2023-12-14T00:14:42;9.20;99.90
18229;DHT22;9239;50.932;3.142;2023-12-14T00:17:08;9.20;99.90
18229;DHT22;9239;50.932;3.142;2023-12-14T00:19:35;9.20;99.90
18229;DHT22;9239;50.932;3.142;2023-12-14T00:22:02;9.30;99.90
18229;DHT22;9239;50.932;3.142;2023-12-14T00:24:31;9.20;99.90
18229;DHT22;9239;50.932;3.142;2023-12-14T00:26:58;9.10;99.90
18229;DHT22;9239;50.932;3.142;2023-12-14T00:29:25;9.10;99.90
18229;DHT22;9239;50.932;3.142;2023-12-14T00:31:52;9.10;99.90
18229;DHT22;9239;50.932;3.142;2023-12-14T00:34:19;9.00;99.90
18229;DHT22;9239;50.932;3.142;2023-12-14T00:36:45;9.00;99.90
18229;DHT22;9239;50.932;3.142;2023-12-14T00:39:12;8.90;99.90
18229;DHT22;9239;50.932;3.142;2023-12-14T00:41:41;8.80;99.90
18229;DHT22;9239;50.932;3.142;2023-12-14T00:44:08;8.80;99.90
18229;DHT22;9239;50.932;3.142;2023-12-14T00:46:34;8.70;99.90
18229;DHT22;9239;50.932;3.142;2023-12-14T00:49:01;8.60;99.90
18229;DHT22;9239;50.932;3.142;2023-12-14T00:51:28;8.60;99.90
18229;DHT22;9239;50.932;3.142;2023-12-14T00:53:55;8.50;99.90
18229;DHT22;9239;50.932;3.142;2023-12-14T00:56:22;8.50;99.90
18229;DHT22;9239;50.932;3.142;2023-12-14T00:58:50;8.40;99.90
18229;DHT22;9239;50.932;3.142;2023-12-14T01:01:17;8.40;99.90
18229;DHT22;9239;50.932;3.142;2023-12-14T01:03:44;8.30;99.90
18229;DHT22;9239;50.932;3.142;2023-12-14T01:06:11;8.30;99.90
18229;DHT22;9239;50.932;3.142;2023-12-14T01:08:38;8.40;99.90
18229;DHT22;9239;50.932;3.142;2023-12-14T01:11:05;8.30;99.90
18229;DHT22;9239;50.932;3.142;2023-12-14T01:13:33;8.30;99.90
18229;DHT22;9239;50.932;3.142;2023-12-14T01:16:02;8.30;99.90
18229;DHT22;9239;50.932;3.142;2023-12-14T01:18:29;8.30;99.90
18229;DHT22;9239;50.932;3.142;2023-12-14T01:20:55;8.30;99.90
18229;DHT22;9239;50.932;3.142;2023-12-14T01:23:22;8.30;99.90
18229;DHT22;9239;50.932;3.142;2023-12-14T01:25:49;8.20;99.90
18229;DHT22;9239;50.932;3.142;2023-12-14T01:28:16;8.20;99.90
18229;DHT22;9239;50.932;3.142;2023-12-14T01:30:43;8.20;99.90
18229;DHT22;9239;50.932;3.142;2023-12-14T01:33:11;8.10;99.90
18229;DHT22;9239;50.932;3.142;2023-12-14T01:35:38;8.10;99.90
18229;DHT22;9239;50.932;3.142;2023-12-14T01:38:05;8.10;99.90
18229;DHT22;9239;50.932;3.142;2023-12-14T01:40:32;8.10;99.90
18229;DHT22;9239;50.932;3.142;2023-12-14T01:43:08;8.10;99.90
18229;DHT22;9239;50.932;3.142;2023-12-14T01:45:36;8.10;99.90
18229;DHT22;9239;50.932;3.142;2023-12-14T01:48:03;8.10;99.90
18229;DHT22;9239;50.932;3.142;2023-12-14T01:50:31;8.10;99.90
18229;DHT22;9239;50.932;3.142;2023-12-14T01:52:58;8.10;99.90
18229;DHT22;9239;50.932;3.142;2023-12-14T01:55:25;8.00;99.90
18229;DHT22;9239;50.932;3.142;2023-12-14T01:57:52;8.00;99.90
18229;DHT22;9239;50.932;3.142;2023-12-14T02:00:23;8.00;99.90
18229;DHT22;9239;50.932;3.142;2023-12-14T02:02:51;8.00;99.90
18229;DHT22;9239;50.932;3.142;2023-12-14T02:05:18;8.00;99.90
18229;DHT22;9239;50.932;3.142;2023-12-14T02:07:47;8.00;99.90
18229;DHT22;9239;50.932;3.142;2023-12-14T02:10:15;8.00;99.90
18229;DHT22;9239;50.932;3.142;2023-12-14T02:12:42;8.10;99.90
18229;DHT22;9239;50.932;3.142;2023-12-14T02:15:09;8.00;99.90
18229;DHT22;9239;50.932;3.142;2023-12-14T02:17:36;8.00;99.90
18229;DHT22;9239;50.932;3.142;2023-12-14T02:20:04;8.00;99.90
18229;DHT22;9239;50.932;3.142;2023-12-14T02:22:36;8.00;99.90
18229;DHT22;9239;50.932;3.142;2023-12-14T02:25:14;8.00;99.90
18229;DHT22;9239;50.932;3.142;2023-12-14T02:27:41;8.00;99.90
18229;DHT22;9239;50.932;3.142;2023-12-14T02:30:09;8.00;99.90
18229;DHT22;9239;50.932;3.142;2023-12-14T02:32:36;8.00;99.90
18229;DHT22;9239;50.932;3.142;2023-12-14T02:35:04;8.00;99.90
18229;DHT22;9239;50.932;3.142;2023-12-14T02:37:31;8.00;99.90
18229;DHT22;9239;50.932;3.142;2023-12-14T02:40:00;8.00;99.90
18229;DHT22;9239;50.932;3.142;2023-12-14T02:42:27;7.90;99.90
18229;DHT22;9239;50.932;3.142;2023-12-14T02:44:54;7.90;99.90
18229;DHT22;9239;50.932;3.142;2023-12-14T02:47:21;7.90;99.90
18229;DHT22;9239;50.932;3.142;2023-12-14T02:49:47;7.90;99.90
18229;DHT22;9239;50.932;3.142;2023-12-14T02:52:14;7.90;99.90
18229;DHT22;9239;50.932;3.142;2023-12-14T02:54:41;7.90;99.90
18229;DHT22;9239;50.932;3.142;2023-12-14T02:57:10;7.80;99.90
18229;DHT22;9239;50.932;3.142;2023-12-14T02:59:36;7.70;99.90
18229;DHT22;9239;50.932;3.142;2023-12-14T03:02:03;7.60;99.90
18229;DHT22;9239;50.932;3.142;2023-12-14T03:04:30;7.60;99.90
18229;DHT22;9239;50.932;3.142;2023-12-14T03:06:57;7.60;99.90
18229;DHT22;9239;50.932;3.142;2023-12-14T03:09:28;7.50;99.90
18229;DHT22;9239;50.932;3.142;2023-12-14T03:11:54;7.50;99.90
18229;DHT22;9239;50.932;3.142;2023-12-14T03:14:23;7.60;99.90
18229;DHT22;9239;50.932;3.142;2023-12-14T03:16:50;7.60;99.90
18229;DHT22;9239;50.932;3.142;2023-12-14T03:19:17;7.60;99.90
18229;DHT22;9239;50.932;3.142;2023-12-14T03:21:44;7.60;99.90
18229;DHT22;9239;50.932;3.142;2023-12-14T03:24:11;7.60;99.90
18229;DHT22;9239;50.932;3.142;2023-12-14T03:26:38;7.60;99.90
18229;DHT22;9239;50.932;3.142;2023-12-14T03:29:04;7.70;99.90
18229;DHT22;9239;50.932;3.142;2023-12-14T03:31:34;7.70;99.90
18229;DHT22;9239;50.932;3.142;2023-12-14T03:34:02;7.70;99.90
18229;DHT22;9239;50.932;3.142;2023-12-14T03:36:29;7.70;99.90
18229;DHT22;9239;50.932;3.142;2023-12-14T03:38:57;7.70;99.90
18229;DHT22;9239;50.932;3.142;2023-12-14T03:41:24;7.60;99.90
18229;DHT22;9239;50.932;3.142;2023-12-14T03:43:51;7.70;99.90
18229;DHT22;9239;50.932;3.142;2023-12-14T03:46:17;7.70;99.90
18229;DHT22;9239;50.932;3.142;2023-12-14T03:48:46;7.70;99.90
18229;DHT22;9239;50.932;3.142;2023-12-14T03:51:13;7.70;99.90
18229;DHT22;9239;50.932;3.142;2023-12-14T03:53:39;7.70;99.90
18229;DHT22;9239;50.932;3.142;2023-12-14T03:56:07;7.80;99.90
18229;DHT22;9239;50.932;3.142;2023-12-14T03:58:35;7.80;99.90
18229;DHT22;9239;50.932;3.142;2023-12-14T04:01:01;7.90;99.90
18229;DHT22;9239;50.932;3.142;2023-12-14T04:03:28;7.90;99.90
18229;DHT22;9239;50.932;3.142;2023-12-14T04:05:57;7.90;99.90
18229;DHT22;9239;50.932;3.142;2023-12-14T04:08:24;7.90;99.90
18229;DHT22;9239;50.932;3.142;2023-12-14T04:10:50;7.90;99.90
18229;DHT22;9239;50.932;3.142;2023-12-14T04:13:17;7.80;99.90
18229;DHT22;9239;50.932;3.142;2023-12-14T04:15:45;7.80;99.90
18229;DHT22;9239;50.932;3.142;2023-12-14T04:18:12;7.80;99.90
18229;DHT22;9239;50.932;3.142;2023-12-14T04:20:38;7.70;99.90
18229;DHT22;9239;50.932;3.142;2023-12-14T04:23:07;7.80;99.90
18229;DHT22;9239;50.932;3.142;2023-12-14T04:25:34;7.80;99.90
18229;DHT22;9239;50.932;3.142;2023-12-14T04:28:01;7.80;99.90
18229;DHT22;9239;50.932;3.142;2023-12-14T04:30:28;7.70;99.90
18229;DHT22;9239;50.932;3.142;2023-12-14T04:32:54;7.80;99.90
18229;DHT22;9239;50.932;3.142;2023-12-14T04:35:21;7.80;99.90
18229;DHT22;9239;50.932;3.142;2023-12-14T04:37:49;7.80;99.90
18229;DHT22;9239;50.932;3.142;2023-12-14T04:40:17;7.80;99.90
18229;DHT22;9239;50.932;3.142;2023-12-14T04:42:44;7.80;99.90
18229;DHT22;9239;50.932;3.142;2023-12-14T04:45:11;7.70;99.90
18229;DHT22;9239;50.932;3.142;2023-12-14T04:47:38;7.70;99.90
18229;DHT22;9239;50.932;3.142;2023-12-14T04:50:05;7.70;99.90
18229;DHT22;9239;50.932;3.142;2023-12-14T04:52:32;7.70;99.90
18229;DHT22;9239;50.932;3.142;2023-12-14T04:54:59;7.70;99.90
18229;DHT22;9239;50.932;3.142;2023-12-14T04:57:28;7.70;99.90
18229;DHT22;9239;50.932;3.142;2023-12-14T04:59:54;7.80;99.90
18229;DHT22;9239;50.932;3.142;2023-12-14T05:02:21;7.70;99.90
18229;DHT22;9239;50.932;3.142;2023-12-14T05:04:49;7.70;99.90
18229;DHT22;9239;50.932;3.142;2023-12-14T05:07:16;7.70;99.90
18229;DHT22;9239;50.932;3.142;2023-12-14T05:09:43;7.70;99.90
18229;DHT22;9239;50.932;3.142;2023-12-14T05:12:10;7.70;99.90
18229;DHT22;9239;50.932;3.142;2023-12-14T05:14:38;7.70;99.90
18229;DHT22;9239;50.932;3.142;2023-12-14T05:17:05;7.60;99.90
18229;DHT22;9239;50.932;3.142;2023-12-14T05:19:33;7.70;99.90
18229;DHT22;9239;50.932;3.142;2023-12-14T05:22:00;7.70;99.90
18229;DHT22;9239;50.932;3.142;2023-12-14T05:24:27;7.70;99.90
18229;DHT22;9239;50.932;3.142;2023-12-14T05:26:54;7.70;99.90
18229;DHT22;9239;50.932;3.142;2023-12-14T05:29:21;7.70;99.90
18229;DHT22;9239;50.932;3.142;2023-12-14T05:31:50;7.70;99.90
18229;DHT22;9239;50.932;3.142;2023-12-14T05:34:17;7.80;99.90
18229;DHT22;9239;50.932;3.142;2023-12-14T05:36:44;7.70;99.90
18229;DHT22;9239;50.932;3.142;2023-12-14T05:39:11;7.70;99.90
18229;DHT22;9239;50.932;3.142;2023-12-14T05:41:40;7.70;99.90
18229;DHT22;9239;50.932;3.142;2023-12-14T05:44:07;7.70;99.90
18229;DHT22;9239;50.932;3.142;2023-12-14T05:46:34;7.70;99.90
18229;DHT22;9239;50.932;3.142;2023-12-14T05:49:02;7.70;99.90
18229;DHT22;9239;50.932;3.142;2023-12-14T05:51:30;7.70;99.90
18229;DHT22;9239;50.932;3.142;2023-12-14T05:53:57;7.70;99.90
18229;DHT22;9239;50.932;3.142;2023-12-14T05:56:25;7.70;99.90
18229;DHT22;9239;50.932;3.142;2023-12-14T05:58:52;7.70;99.90
18229;DHT22;9239;50.932;3.142;2023-12-14T06:01:19;7.70;99.90
18229;DHT22;9239;50.932;3.142;2023-12-14T06:03:46;7.60;99.90
18229;DHT22;9239;50.932;3.142;2023-12-14T06:06:15;7.60;99.90
18229;DHT22;9239;50.932;3.142;2023-12-14T06:08:42;7.50;99.90
18229;DHT22;9239;50.932;3.142;2023-12-14T06:11:10;7.50;99.90
18229;DHT22;9239;50.932;3.142;2023-12-14T06:13:36;7.50;99.90
18229;DHT22;9239;50.932;3.142;2023-12-14T06:16:04;7.50;99.90
18229;DHT22;9239;50.932;3.142;2023-12-14T06:18:34;7.50;99.90
18229;DHT22;9239;50.932;3.142;2023-12-14T06:21:00;7.50;99.90
18229;DHT22;9239;50.932;3.142;2023-12-14T06:23:29;7.50;99.90
18229;DHT22;9239;50.932;3.142;2023-12-14T06:25:56;7.50;99.90
18229;DHT22;9239;50.932;3.142;2023-12-14T06:28:24;7.40;99.90
18229;DHT22;9239;50.932;3.142;2023-12-14T06:30:51;7.40;99.90
18229;DHT22;9239;50.932;3.142;2023-12-14T06:33:17;7.30;99.90
18229;DHT22;9239;50.932;3.142;2023-12-14T06:35:44;7.30;99.90
18229;DHT22;9239;50.932;3.142;2023-12-14T06:38:11;7.20;99.90
18229;DHT22;9239;50.932;3.142;2023-12-14T06:40:39;7.20;99.90
18229;DHT22;9239;50.932;3.142;2023-12-14T06:43:07;7.10;99.90
18229;DHT22;9239;50.932;3.142;2023-12-14T06:45:36;7.00;99.90
18229;DHT22;9239;50.932;3.142;2023-12-14T06:48:04;7.00;99.90
18229;DHT22;9239;50.932;3.142;2023-12-14T06:50:31;6.90;99.90
18229;DHT22;9239;50.932;3.142;2023-12-14T06:52:58;6.80;99.90
18229;DHT22;9239;50.932;3.142;2023-12-14T06:55:25;6.80;99.90
18229;DHT22;9239;50.932;3.142;2023-12-14T06:57:53;6.80;99.90
18229;DHT22;9239;50.932;3.142;2023-12-14T07:00:20;6.80;99.90
18229;DHT22;9239;50.932;3.142;2023-12-14T07:02:47;6.80;99.90
18229;DHT22;9239;50.932;3.142;2023-12-14T07:05:14;6.80;99.90
18229;DHT22;9239;50.932;3.142;2023-12-14T07:07:41;6.90;99.90
18229;DHT22;9239;50.932;3.142;2023-12-14T07:10:08;6.90;99.90
18229;DHT22;9239;50.932;3.142;2023-12-14T07:12:36;7.00;99.90
18229;DHT22;9239;50.932;3.142;2023-12-14T07:15:05;7.10;99.90
18229;DHT22;9239;50.932;3.142;2023-12-14T07:17:32;7.10;99.90
18229;DHT22;9239;50.932;3.142;2023-12-14T07:19:59;7.10;99.90
18229;DHT22;9239;50.932;3.142;2023-12-14T07:22:26;7.10;99.90
18229;DHT22;9239;50.932;3.142;2023-12-14T07:24:53;7.10;99.90
18229;DHT22;9239;50.932;3.142;2023-12-14T07:27:20;7.10;99.90
18229;DHT22;9239;50.932;3.142;2023-12-14T07:29:47;7.20;99.90
18229;DHT22;9239;50.932;3.142;2023-12-14T07:32:15;7.10;99.90
18229;DHT22;9239;50.932;3.142;2023-12-14T07:34:43;7.20;99.90
18229;DHT22;9239;50.932;3.142;2023-12-14T07:37:10;7.20;99.90
18229;DHT22;9239;50.932;3.142;2023-12-14T07:39:38;7.20;99.90
18229;DHT22;9239;50.932;3.142;2023-12-14T07:42:05;7.20;99.90
18229;DHT22;9239;50.932;3.142;2023-12-14T07:44:32;7.30;99.90
18229;DHT22;9239;50.932;3.142;2023-12-14T07:47:01;7.30;99.90
18229;DHT22;9239;50.932;3.142;2023-12-14T07:49:29;7.30;99.90
18229;DHT22;9239;50.932;3.142;2023-12-14T07:51:56;7.30;99.90
18229;DHT22;9239;50.932;3.142;2023-12-14T07:54:23;7.30;99.90
18229;DHT22;9239;50.932;3.142;2023-12-14T07:56:52;7.30;99.90
18229;DHT22;9239;50.932;3.142;2023-12-14T07:59:19;7.40;99.90
18229;DHT22;9239;50.932;3.142;2023-12-14T08:01:46;7.30;99.90
18229;DHT22;9239;50.932;3.142;2023-12-14T08:04:14;7.30;99.90
18229;DHT22;9239;50.932;3.142;2023-12-14T08:06:43;7.30;99.90
18229;DHT22;9239;50.932;3.142;2023-12-14T08:09:10;7.40;99.90
18229;DHT22;9239;50.932;3.142;2023-12-14T08:11:37;7.40;99.90
18229;DHT22;9239;50.932;3.142;2023-12-14T08:14:03;7.50;99.90
18229;DHT22;9239;50.932;3.142;2023-12-14T08:16:30;7.50;99.90
18229;DHT22;9239;50.932;3.142;2023-12-14T08:18:57;7.50;99.90
18229;DHT22;9239;50.932;3.142;2023-12-14T08:21:24;7.50;99.90
18229;DHT22;9239;50.932;3.142;2023-12-14T08:23:52;7.50;99.90
18229;DHT22;9239;50.932;3.142;2023-12-14T08:26:19;7.50;99.90
18229;DHT22;9239;50.932;3.142;2023-12-14T08:28:46;7.50;99.90
18229;DHT22;9239;50.932;3.142;2023-12-14T08:31:14;7.50;99.90
18229;DHT22;9239;50.932;3.142;2023-12-14T08:33:41;7.60;99.90
18229;DHT22;9239;50.932;3.142;2023-12-14T08:36:08;7.60;99.90
18229;DHT22;9239;50.932;3.142;2023-12-14T08:38:36;7.60;99.90
18229;DHT22;9239;50.932;3.142;2023-12-14T08:41:04;7.60;99.90
18229;DHT22;9239;50.932;3.142;2023-12-14T08:43:32;7.70;99.90
18229;DHT22;9239;50.932;3.142;2023-12-14T08:45:58;7.70;99.90
18229;DHT22;9239;50.932;3.142;2023-12-14T08:48:25;7.70;99.90
18229;DHT22;9239;50.932;3.142;2023-12-14T08:50:53;7.70;99.90
18229;DHT22;9239;50.932;3.142;2023-12-14T08:53:20;7.70;99.90
18229;DHT22;9239;50.932;3.142;2023-12-14T08:55:47;7.80;99.90
18229;DHT22;9239;50.932;3.142;2023-12-14T08:58:16;7.80;99.90
18229;DHT22;9239;50.932;3.142;2023-12-14T09:00:43;7.80;99.90
18229;DHT22;9239;50.932;3.142;2023-12-14T09:03:10;7.80;99.90
18229;DHT22;9239;50.932;3.142;2023-12-14T09:05:37;7.80;99.90
18229;DHT22;9239;50.932;3.142;2023-12-14T09:08:07;7.80;99.90
18229;DHT22;9239;50.932;3.142;2023-12-14T09:10:34;7.80;99.90
18229;DHT22;9239;50.932;3.142;2023-12-14T09:13:01;7.80;99.90
18229;DHT22;9239;50.932;3.142;2023-12-14T09:15:31;7.80;99.90
18229;DHT22;9239;50.932;3.142;2023-12-14T09:17:58;7.90;99.90
18229;DHT22;9239;50.932;3.142;2023-12-14T09:20:25;7.80;99.90
18229;DHT22;9239;50.932;3.142;2023-12-14T09:22:52;7.90;99.90
18229;DHT22;9239;50.932;3.142;2023-12-14T09:25:19;7.90;99.90
18229;DHT22;9239;50.932;3.142;2023-12-14T09:27:46;7.90;99.90
18229;DHT22;9239;50.932;3.142;2023-12-14T09:30:13;7.90;99.90
18229;DHT22;9239;50.932;3.142;2023-12-14T09:32:44;7.90;99.90
18229;DHT22;9239;50.932;3.142;2023-12-14T09:35:12;7.90;99.90
18229;DHT22;9239;50.932;3.142;2023-12-14T09:37:39;7.90;99.90
18229;DHT22;9239;50.932;3.142;2023-12-14T09:40:08;7.90;99.90
18229;DHT22;9239;50.932;3.142;2023-12-14T09:42:40;7.90;99.90
18229;DHT22;9239;50.932;3.142;2023-12-14T09:45:10;7.90;99.90
18229;DHT22;9239;50.932;3.142;2023-12-14T09:47:38;7.90;99.90
18229;DHT22;9239;50.932;3.142;2023-12-14T09:50:08;7.90;99.90
18229;DHT22;9239;50.932;3.142;2023-12-14T09:52:35;8.00;99.90
18229;DHT22;9239;50.932;3.142;2023-12-14T09:55:02;8.00;99.90
18229;DHT22;9239;50.932;3.142;2023-12-14T09:57:29;8.10;99.90
18229;DHT22;9239;50.932;3.142;2023-12-14T09:59:56;8.10;99.90
18229;DHT22;9239;50.932;3.142;2023-12-14T10:02:26;8.20;99.90
18229;DHT22;9239;50.932;3.142;2023-12-14T10:04:53;8.30;99.90
18229;DHT22;9239;50.932;3.142;2023-12-14T10:07:22;8.30;99.90
18229;DHT22;9239;50.932;3.142;2023-12-14T10:09:49;8.30;99.90
18229;DHT22;9239;50.932;3.142;2023-12-14T10:12:18;8.30;99.90
18229;DHT22;9239;50.932;3.142;2023-12-14T10:14:47;8.30;99.90
18229;DHT22;9239;50.932;3.142;2023-12-14T10:17:26;8.30;99.90
18229;DHT22;9239;50.932;3.142;2023-12-14T10:19:58;8.30;99.90
18229;DHT22;9239;50.932;3.142;2023-12-14T10:22:30;8.30;99.90
18229;DHT22;9239;50.932;3.142;2023-12-14T10:24:58;8.40;99.90
18229;DHT22;9239;50.932;3.142;2023-12-14T10:27:26;8.40;99.90
18229;DHT22;9239;50.932;3.142;2023-12-14T10:29:53;8.40;99.90
18229;DHT22;9239;50.932;3.142;2023-12-14T10:32:23;8.40;99.90
18229;DHT22;9239;50.932;3.142;2023-12-14T10:34:50;8.50;99.90
18229;DHT22;9239;50.932;3.142;2023-12-14T10:37:17;8.50;99.90
18229;DHT22;9239;50.932;3.142;2023-12-14T10:39:46;8.50;99.90
18229;DHT22;9239;50.932;3.142;2023-12-14T10:42:17;8.50;99.90
18229;DHT22;9239;50.932;3.142;2023-12-14T10:44:45;8.40;99.90
18229;DHT22;9239;50.932;3.142;2023-12-14T10:47:15;8.30;99.90
18229;DHT22;9239;50.932;3.142;2023-12-14T10:49:42;8.30;99.90
18229;DHT22;9239;50.932;3.142;2023-12-14T10:52:11;8.30;99.90
18229;DHT22;9239;50.932;3.142;2023-12-14T10:54:38;8.20;99.90
18229;DHT22;9239;50.932;3.142;2023-12-14T10:57:08;8.20;99.90
18229;DHT22;9239;50.932;3.142;2023-12-14T10:59:35;8.30;99.90
18229;DHT22;9239;50.932;3.142;2023-12-14T11:02:07;8.30;99.90
18229;DHT22;9239;50.932;3.142;2023-12-14T11:04:56;8.30;99.90
18229;DHT22;9239;50.932;3.142;2023-12-14T11:07:47;8.40;99.90
18229;DHT22;9239;50.932;3.142;2023-12-14T11:10:14;8.40;99.90
18229;DHT22;9239;50.932;3.142;2023-12-14T11:12:55;8.40;99.90
18229;DHT22;9239;50.932;3.142;2023-12-14T11:15:23;8.50;99.90
18229;DHT22;9239;50.932;3.142;2023-12-14T11:18:20;8.50;99.90
18229;DHT22;9239;50.932;3.142;2023-12-14T11:20:48;8.60;99.90
18229;DHT22;9239;50.932;3.142;2023-12-14T11:23:16;8.60;99.90
18229;DHT22;9239;50.932;3.142;2023-12-14T11:25:48;8.60;99.90
18229;DHT22;9239;50.932;3.142;2023-12-14T11:28:17;8.60;99.90
18229;DHT22;9239;50.932;3.142;2023-12-14T11:30:44;8.60;99.90
18229;DHT22;9239;50.932;3.142;2023-12-14T11:33:12;8.70;99.90
18229;DHT22;9239;50.932;3.142;2023-12-14T11:35:39;8.70;99.90
18229;DHT22;9239;50.932;3.142;2023-12-14T11:38:06;8.80;99.90
18229;DHT22;9239;50.932;3.142;2023-12-14T11:40:38;8.80;99.90
18229;DHT22;9239;50.932;3.142;2023-12-14T11:43:05;8.80;99.90
18229;DHT22;9239;50.932;3.142;2023-12-14T11:45:35;8.80;99.90
18229;DHT22;9239;50.932;3.142;2023-12-14T11:48:02;8.70;99.90
18229;DHT22;9239;50.932;3.142;2023-12-14T11:50:31;8.70;99.90
18229;DHT22;9239;50.932;3.142;2023-12-14T11:53:00;8.70;99.90
18229;DHT22;9239;50.932;3.142;2023-12-14T11:55:28;8.90;99.90
18229;DHT22;9239;50.932;3.142;2023-12-14T11:57:56;8.90;99.90
18229;DHT22;9239;50.932;3.142;2023-12-14T12:00:25;8.80;99.90
18229;DHT22;9239;50.932;3.142;2023-12-14T12:03:07;9.00;99.90
18229;DHT22;9239;50.932;3.142;2023-12-14T12:05:38;9.00;99.90
18229;DHT22;9239;50.932;3.142;2023-12-14T12:08:06;8.90;99.90
18229;DHT22;9239;50.932;3.142;2023-12-14T12:10:34;9.00;99.90
18229;DHT22;9239;50.932;3.142;2023-12-14T12:13:02;9.00;99.90
18229;DHT22;9239;50.932;3.142;2023-12-14T12:15:31;9.00;99.90
18229;DHT22;9239;50.932;3.142;2023-12-14T12:18:00;9.00;99.90
18229;DHT22;9239;50.932;3.142;2023-12-14T12:20:26;9.00;99.90
18229;DHT22;9239;50.932;3.142;2023-12-14T12:22:53;9.00;99.90
18229;DHT22;9239;50.932;3.142;2023-12-14T12:25:21;9.00;99.90
18229;DHT22;9239;50.932;3.142;2023-12-14T12:27:48;8.90;99.90
18229;DHT22;9239;50.932;3.142;2023-12-14T12:30:15;8.90;99.90
18229;DHT22;9239;50.932;3.142;2023-12-14T12:32:42;9.00;99.90
18229;DHT22;9239;50.932;3.142;2023-12-14T12:35:11;8.90;99.90
18229;DHT22;9239;50.932;3.142;2023-12-14T12:37:39;8.90;99.90
18229;DHT22;9239;50.932;3.142;2023-12-14T12:40:07;8.80;99.90
18229;DHT22;9239;50.932;3.142;2023-12-14T12:42:34;8.80;99.90
18229;DHT22;9239;50.932;3.142;2023-12-14T12:45:01;8.80;99.90
18229;DHT22;9239;50.932;3.142;2023-12-14T12:47:28;8.90;99.90
18229;DHT22;9239;50.932;3.142;2023-12-14T12:49:55;8.90;99.90
18229;DHT22;9239;50.932;3.142;2023-12-14T12:52:23;8.90;99.90
18229;DHT22;9239;50.932;3.142;2023-12-14T12:54:51;8.90;99.90
18229;DHT22;9239;50.932;3.142;2023-12-14T12:57:17;8.80;99.90
18229;DHT22;9239;50.932;3.142;2023-12-14T12:59:44;8.80;99.90
18229;DHT22;9239;50.932;3.142;2023-12-14T13:02:12;8.70;99.90
18229;DHT22;9239;50.932;3.142;2023-12-14T13:04:39;8.70;99.90
18229;DHT22;9239;50.932;3.142;2023-12-14T13:07:06;8.70;99.90
18229;DHT22;9239;50.932;3.142;2023-12-14T13:09:34;8.60;99.90
18229;DHT22;9239;50.932;3.142;2023-12-14T13:12:03;8.60;99.90
18229;DHT22;9239;50.932;3.142;2023-12-14T13:14:30;8.60;99.90
18229;DHT22;9239;50.932;3.142;2023-12-14T13:16:58;8.60;99.90
18229;DHT22;9239;50.932;3.142;2023-12-14T13:19:25;8.60;99.90
18229;DHT22;9239;50.932;3.142;2023-12-14T13:21:54;8.70;99.90
18229;DHT22;9239;50.932;3.142;2023-12-14T13:24:23;8.70;99.90
18229;DHT22;9239;50.932;3.142;2023-12-14T13:26:51;8.70;99.90
18229;DHT22;9239;50.932;3.142;2023-12-14T13:29:18;8.70;99.90
18229;DHT22;9239;50.932;3.142;2023-12-14T13:31:46;8.70;99.90
18229;DHT22;9239;50.932;3.142;2023-12-14T13:34:14;8.70;99.90
18229;DHT22;9239;50.932;3.142;2023-12-14T13:36:41;8.60;99.90
18229;DHT22;9239;50.932;3.142;2023-12-14T13:39:08;8.60;99.90
18229;DHT22;9239;50.932;3.142;2023-12-14T13:41:35;8.60;99.90
18229;DHT22;9239;50.932;3.142;2023-12-14T13:44:04;8.50;99.90
18229;DHT22;9239;50.932;3.142;2023-12-14T13:46:31;8.50;99.90
18229;DHT22;9239;50.932;3.142;2023-12-14T13:48:57;8.50;99.90
18229;DHT22;9239;50.932;3.142;2023-12-14T13:51:23;8.40;99.90
18229;DHT22;9239;50.932;3.142;2023-12-14T13:53:50;8.40;99.90
18229;DHT22;9239;50.932;3.142;2023-12-14T13:56:17;8.40;99.90
18229;DHT22;9239;50.932;3.142;2023-12-14T13:58:44;8.40;99.90
18229;DHT22;9239;50.932;3.142;2023-12-14T14:01:13;8.40;99.90
18229;DHT22;9239;50.932;3.142;2023-12-14T14:03:41;8.40;99.90
18229;DHT22;9239;50.932;3.142;2023-12-14T14:06:08;8.40;99.90
18229;DHT22;9239;50.932;3.142;2023-12-14T14:08:35;8.40;99.90
18229;DHT22;9239;50.932;3.142;2023-12-14T14:11:03;8.40;99.90
18229;DHT22;9239;50.932;3.142;2023-12-14T14:13:31;8.40;99.90
18229;DHT22;9239;50.932;3.142;2023-12-14T14:15:59;8.40;99.90
18229;DHT22;9239;50.932;3.142;2023-12-14T14:18:28;8.30;99.90
18229;DHT22;9239;50.932;3.142;2023-12-14T14:20:55;8.30;99.90
18229;DHT22;9239;50.932;3.142;2023-12-14T14:23:22;8.30;99.90
18229;DHT22;9239;50.932;3.142;2023-12-14T14:25:51;8.30;99.90
18229;DHT22;9239;50.932;3.142;2023-12-14T14:28:20;8.30;99.90
18229;DHT22;9239;50.932;3.142;2023-12-14T14:30:47;8.30;99.90
18229;DHT22;9239;50.932;3.142;2023-12-14T14:33:14;8.30;99.90
18229;DHT22;9239;50.932;3.142;2023-12-14T14:35:45;8.30;99.90
18229;DHT22;9239;50.932;3.142;2023-12-14T14:38:12;8.30;99.90
18229;DHT22;9239;50.932;3.142;2023-12-14T14:40:41;8.30;99.90
18229;DHT22;9239;50.932;3.142;2023-12-14T14:43:08;8.30;99.90
18229;DHT22;9239;50.932;3.142;2023-12-14T14:45:35;8.30;99.90
18229;DHT22;9239;50.932;3.142;2023-12-14T14:48:04;8.30;99.90
18229;DHT22;9239;50.932;3.142;2023-12-14T14:50:33;8.30;99.90
18229;DHT22;9239;50.932;3.142;2023-12-14T14:53:02;8.20;99.90
18229;DHT22;9239;50.932;3.142;2023-12-14T14:55:29;8.20;99.90
18229;DHT22;9239;50.932;3.142;2023-12-14T14:57:56;8.20;99.90
18229;DHT22;9239;50.932;3.142;2023-12-14T15:00:23;8.20;99.90
18229;DHT22;9239;50.932;3.142;2023-12-14T15:02:51;8.20;99.90
18229;DHT22;9239;50.932;3.142;2023-12-14T15:05:18;8.20;99.90
18229;DHT22;9239;50.932;3.142;2023-12-14T15:07:45;8.20;99.90
18229;DHT22;9239;50.932;3.142;2023-12-14T15:10:13;8.20;99.90
18229;DHT22;9239;50.932;3.142;2023-12-14T15:12:40;8.20;99.90
18229;DHT22;9239;50.932;3.142;2023-12-14T15:15:08;8.20;99.90
18229;DHT22;9239;50.932;3.142;2023-12-14T15:17:35;8.20;99.90
18229;DHT22;9239;50.932;3.142;2023-12-14T15:20:02;8.20;99.90
18229;DHT22;9239;50.932;3.142;2023-12-14T15:22:30;8.10;99.90
18229;DHT22;9239;50.932;3.142;2023-12-14T15:24:57;8.00;99.90
18229;DHT22;9239;50.932;3.142;2023-12-14T15:27:26;8.00;99.90
18229;DHT22;9239;50.932;3.142;2023-12-14T15:29:56;8.00;99.90
18229;DHT22;9239;50.932;3.142;2023-12-14T15:32:26;8.00;99.90
18229;DHT22;9239;50.932;3.142;2023-12-14T15:34:53;8.00;99.90
18229;DHT22;9239;50.932;3.142;2023-12-14T15:37:20;8.10;99.90
18229;DHT22;9239;50.932;3.142;2023-12-14T15:39:47;8.00;99.90
18229;DHT22;9239;50.932;3.142;2023-12-14T15:42:15;8.00;99.90
18229;DHT22;9239;50.932;3.142;2023-12-14T15:44:44;7.90;99.90
18229;DHT22;9239;50.932;3.142;2023-12-14T15:47:11;7.90;99.90
18229;DHT22;9239;50.932;3.142;2023-12-14T15:49:38;7.90;99.90
18229;DHT22;9239;50.932;3.142;2023-12-14T15:52:05;7.90;99.90
18229;DHT22;9239;50.932;3.142;2023-12-14T15:54:32;7.90;99.90
18229;DHT22;9239;50.932;3.142;2023-12-14T15:56:59;7.90;99.90
18229;DHT22;9239;50.932;3.142;2023-12-14T15:59:26;7.90;99.90
18229;DHT22;9239;50.932;3.142;2023-12-14T16:01:55;7.90;99.90
18229;DHT22;9239;50.932;3.142;2023-12-14T16:04:22;7.90;99.90
18229;DHT22;9239;50.932;3.142;2023-12-14T16:06:49;7.90;99.90